Time;durP1;ratioP1;P1;durP2;ratioP2;P2;SDS_P1;SDS_P2;PMS_P1;PMS_P2;Temp;Humidity;BMP_temperature;BMP_pressure;BME280_temperature;BME280_humidity;BME280_pressure;Samples;Min_cycle;Max_cycle;Signal;HPM_P1;HPM_P2
2022/07/27 00:01:58;;;;;;;4.75;3.83;;;;;;;21.70;61.78;99563.75;4391132;32;33867;-81
2022/07/27 00:04:26;;;;;;;5.95;4.10;;;;;;;21.70;61.44;99561.78;4398627;32;34072;-75
2022/07/27 00:06:53;;;;;;;5.62;3.97;;;;;;;21.94;60.54;99560.44;4406420;32;34624;-90
2022/07/27 00:09:21;;;;;;;6.85;4.35;;;;;;;21.50;61.71;99568.81;4406314;32;34950;-76
2022/07/27 00:11:49;;;;;;;5.65;3.90;;;;;;;21.66;61.10;99566.37;4406108;32;34792;-87
2022/07/27 00:14:16;;;;;;;4.93;3.80;;;;;;;21.35;61.79;99566.50;4406017;32;34962;-78
2022/07/27 00:16:44;;;;;;;5.28;4.07;;;;;;;21.54;61.30;99570.94;4406445;32;34392;-74
2022/07/27 00:19:11;;;;;;;4.20;3.20;;;;;;;21.37;61.64;99568.97;4398158;32;33897;-82
2022/07/27 00:21:39;;;;;;;6.80;3.33;;;;;;;21.76;60.21;99573.47;4391002;32;34318;-80
2022/07/27 00:24:12;;;;;;;5.18;3.62;;;;;;;21.70;59.56;99574.78;4390894;32;34037;-90
2022/07/27 00:26:40;;;;;;;5.00;3.60;;;;;;;21.73;59.63;99576.91;4376224;32;33338;-87
2022/07/27 00:29:07;;;;;;;6.07;3.67;;;;;;;21.47;60.45;99575.00;4376275;32;33998;-75
2022/07/27 00:31:36;;;;;;;4.40;3.30;;;;;;;21.60;59.99;99573.19;4375749;32;34311;-86
2022/07/27 00:34:03;;;;;;;4.82;3.40;;;;;;;21.08;61.87;99576.75;4384572;32;35026;-83
2022/07/27 00:36:31;;;;;;;4.68;3.58;;;;;;;21.50;60.17;99571.56;4390742;32;34130;-76
2022/07/27 00:38:58;;;;;;;4.45;3.55;;;;;;;21.40;60.32;99574.63;4377717;32;34524;-90
2022/07/27 00:41:26;;;;;;;5.95;3.97;;;;;;;21.45;60.35;99573.69;4390144;32;33947;-77
2022/07/27 00:43:58;;;;;;;5.37;3.53;;;;;;;21.07;61.17;99569.59;4390737;32;34435;-87
2022/07/27 00:46:27;;;;;;;4.78;3.45;;;;;;;21.28;60.61;99567.00;4390893;32;34705;-75
2022/07/27 00:48:54;;;;;;;5.12;3.65;;;;;;;21.44;60.23;99569.31;4394651;32;33965;-76
2022/07/27 00:51:22;;;;;;;5.97;3.62;;;;;;;21.23;60.59;99569.94;4405681;32;34067;-87
2022/07/27 00:53:52;;;;;;;5.05;3.20;;;;;;;21.00;61.39;99577.53;4394279;32;35106;-90
2022/07/27 00:56:20;;;;;;;4.03;3.17;;;;;;;21.13;60.92;99572.22;4407912;32;33338;-89
2022/07/27 00:58:49;;;;;;;4.70;3.42;;;;;;;20.98;61.11;99565.22;4394785;32;34003;-89
2022/07/27 01:01:18;;;;;;;4.97;3.30;;;;;;;20.97;60.97;99563.56;4407011;32;34290;-89
2022/07/27 01:03:46;;;;;;;4.72;3.15;;;;;;;21.39;59.62;99572.22;4398035;32;33937;-88
2022/07/27 01:06:15;;;;;;;4.15;2.80;;;;;;;21.04;60.17;99567.50;4392982;32;33722;-74
2022/07/27 01:09:55;;;;;;;4.60;3.25;;;;;;;21.35;58.87;99569.28;4391791;32;34841;-74
2022/07/27 01:11:44;;;;;;;4.05;2.80;;;;;;;21.09;59.03;99575.59;4380815;32;35045;-88
2022/07/27 01:14:14;;;;;;;4.07;2.87;;;;;;;20.86;59.88;99572.19;4404995;32;33969;-76
2022/07/27 01:16:42;;;;;;;4.50;2.80;;;;;;;21.15;58.72;99567.97;4407938;32;33554;-79
2022/07/27 01:19:11;;;;;;;3.20;2.30;;;;;;;21.05;58.82;99579.31;4407831;32;34207;-79
2022/07/27 01:21:39;;;;;;;4.03;2.62;;;;;;;21.23;57.54;99577.38;4407440;32;34986;-87
2022/07/27 01:24:07;;;;;;;3.45;2.62;;;;;;;21.12;58.38;99576.09;4408335;32;34328;-89
2022/07/27 01:26:35;;;;;;;3.72;2.67;;;;;;;20.96;58.80;99578.50;4392990;32;33915;-83
2022/07/27 01:29:03;;;;;;;3.67;2.75;;;;;;;21.01;58.94;99583.88;4392271;32;34867;-73
2022/07/27 01:31:30;;;;;;;4.35;3.35;;;;;;;21.46;57.37;99567.03;4392266;32;33833;-91
2022/07/27 01:33:58;;;;;;;4.10;3.03;;;;;;;21.15;58.41;99569.94;4403172;32;34308;-90
2022/07/27 01:36:26;;;;;;;4.07;2.78;;;;;;;20.93;59.22;99573.63;4407634;32;33820;-93
2022/07/27 01:38:53;;;;;;;4.53;3.03;;;;;;;21.07;58.66;99566.03;4408782;32;33868;-75
2022/07/27 01:41:21;;;;;;;4.45;3.08;;;;;;;21.19;58.39;99574.47;4407213;32;35180;-90
2022/07/27 01:43:48;;;;;;;5.00;3.30;;;;;;;21.03;58.94;99571.38;4392930;32;34356;-90
2022/07/27 01:46:16;;;;;;;4.55;3.20;;;;;;;20.78;59.83;99581.25;4392472;32;33724;-72
2022/07/27 01:48:43;;;;;;;4.55;3.47;;;;;;;20.75;60.13;99581.06;4392466;32;34563;-86
2022/07/27 01:51:11;;;;;;;5.00;3.55;;;;;;;20.87;59.81;99584.00;4392190;32;34951;-74
2022/07/27 01:53:39;;;;;;;4.78;3.12;;;;;;;20.62;60.73;99574.53;4378939;32;34282;-87
2022/07/27 01:56:10;;;;;;;5.32;3.72;;;;;;;20.57;61.22;99570.00;4392037;32;33380;-79
2022/07/27 01:58:38;;;;;;;6.65;4.10;;;;;;;20.60;61.26;99574.03;4392382;32;33993;-88
2022/07/27 02:01:06;;;;;;;5.37;3.75;;;;;;;20.85;60.41;99569.72;4391997;32;35032;-84
2022/07/27 02:03:35;;;;;;;4.65;3.60;;;;;;;20.63;61.17;99573.41;4392164;32;34940;-86
2022/07/27 02:06:03;;;;;;;5.65;3.53;;;;;;;20.71;60.97;99560.78;4392705;32;33671;-92
2022/07/27 02:08:31;;;;;;;5.03;3.30;;;;;;;20.71;60.97;99561.56;4392377;32;33880;-90
2022/07/27 02:13:46;;;;;;;4.97;3.67;;;;;;;20.77;60.61;99565.00;4392408;32;34851;-88
2022/07/27 02:16:15;;;;;;;5.32;3.75;;;;;;;20.79;60.29;99563.53;4392432;32;33803;-78
2022/07/27 02:18:44;;;;;;;4.60;3.53;;;;;;;20.81;60.17;99561.28;4391441;32;34330;-88
2022/07/27 02:21:15;;;;;;;4.72;3.37;;;;;;;20.87;59.90;99561.94;4378403;32;34597;-75
2022/07/27 02:23:43;;;;;;;4.60;3.15;;;;;;;20.63;60.44;99568.72;4392348;32;34210;-91
2022/07/27 02:26:11;;;;;;;6.18;3.95;;;;;;;20.60;60.47;99563.81;4404143;32;33558;-74
2022/07/27 02:28:38;;;;;;;4.75;3.33;;;;;;;20.81;59.61;99568.75;4407466;32;33905;-74
2022/07/27 02:31:06;;;;;;;3.78;2.92;;;;;;;20.60;60.20;99565.78;4406551;32;35114;-72
2022/07/27 02:33:33;;;;;;;4.35;3.17;;;;;;;20.62;60.00;99575.34;4407389;32;34080;-73
2022/07/27 02:36:01;;;;;;;5.25;3.53;;;;;;;20.63;59.91;99568.72;4407149;32;33564;-72
2022/07/27 02:38:29;;;;;;;5.60;3.55;;;;;;;20.30;60.75;99571.00;4393556;32;34812;-72
2022/07/27 02:40:56;;;;;;;5.20;3.62;;;;;;;20.33;60.67;99575.06;4392019;32;33953;-73
2022/07/27 02:43:24;;;;;;;5.32;3.50;;;;;;;20.29;60.77;99569.38;4392118;32;34189;-72
2022/07/27 02:45:51;;;;;;;4.37;3.42;;;;;;;20.44;60.25;99568.13;4392032;32;33585;-72
2022/07/27 02:48:19;;;;;;;4.43;3.53;;;;;;;20.41;60.12;99566.84;4392128;32;34774;-89
2022/07/27 02:50:47;;;;;;;4.85;3.60;;;;;;;20.37;60.07;99567.81;4391823;32;34098;-87
2022/07/27 02:53:14;;;;;;;5.10;3.45;;;;;;;20.45;59.90;99570.59;4392045;32;34180;-76
2022/07/27 02:55:42;;;;;;;5.18;3.70;;;;;;;20.36;60.46;99569.72;4386244;32;32431;-90
2022/07/27 02:58:09;;;;;;;4.93;3.40;;;;;;;20.34;60.39;99560.97;4391997;32;34661;-89
2022/07/27 03:00:37;;;;;;;3.75;3.10;;;;;;;20.53;59.62;99571.72;4391528;32;35159;-83
2022/07/27 03:03:04;;;;;;;5.00;3.55;;;;;;;20.28;60.36;99571.31;4391889;32;34633;-76
2022/07/27 03:05:32;;;;;;;5.00;3.67;;;;;;;20.03;61.21;99577.53;4391967;32;33445;-88
2022/07/27 03:07:59;;;;;;;4.70;3.42;;;;;;;20.16;60.65;99571.09;4391667;32;34742;-90
2022/07/27 03:10:27;;;;;;;5.07;3.10;;;;;;;20.26;60.27;99567.28;4378003;32;35019;-80
2022/07/27 03:12:55;;;;;;;4.35;3.20;;;;;;;20.20;60.24;99571.28;4391957;32;34367;-80
2022/07/27 03:15:23;;;;;;;4.60;3.30;;;;;;;20.07;60.75;99575.75;4390717;32;34567;-74
2022/07/27 03:17:52;;;;;;;4.35;3.33;;;;;;;20.26;60.26;99570.03;4378853;32;33748;-86
2022/07/27 03:20:20;;;;;;;5.10;3.20;;;;;;;19.98;61.00;99572.97;4391638;32;35123;-73
2022/07/27 03:22:47;;;;;;;4.80;3.20;;;;;;;20.04;60.76;99577.22;4394653;32;34901;-85
2022/07/27 03:25:15;;;;;;;4.68;3.10;;;;;;;20.47;59.27;99568.31;4407030;32;33838;-72
2022/07/27 03:27:43;;;;;;;4.60;3.33;;;;;;;20.08;60.68;99567.16;4407244;32;33766;-81
2022/07/27 03:30:10;;;;;;;3.75;3.00;;;;;;;20.04;60.97;99571.72;4407899;32;33734;-90
2022/07/27 03:32:38;;;;;;;4.07;3.08;;;;;;;20.39;59.86;99585.62;4406820;32;35057;-89
2022/07/27 03:35:06;;;;;;;4.40;3.08;;;;;;;20.23;60.38;99587.97;4407166;32;34429;-90
2022/07/27 03:37:33;;;;;;;4.25;3.05;;;;;;;20.16;60.92;99579.38;4400321;32;33548;-82
2022/07/27 03:40:00;;;;;;;4.75;3.22;;;;;;;20.61;59.72;99582.00;4392555;32;35124;-92
2022/07/27 03:42:28;;;;;;;5.10;3.03;;;;;;;20.61;59.35;99578.44;4391420;32;34279;-93
2022/07/27 03:44:56;;;;;;;5.28;3.22;;;;;;;20.91;58.79;99590.50;4392149;32;33378;-73
2022/07/27 03:47:23;;;;;;;3.90;2.83;;;;;;;21.26;57.50;99590.53;4391666;32;34836;-75
2022/07/27 03:49:51;;;;;;;3.87;2.92;;;;;;;21.19;57.45;99590.22;4391400;32;34229;-84
2022/07/27 03:52:19;;;;;;;4.85;3.15;;;;;;;21.44;57.23;99594.94;4397653;32;33959;-90
2022/07/27 03:54:47;;;;;;;3.78;2.80;;;;;;;21.53;57.36;99586.66;4406658;32;34072;-82
2022/07/27 03:57:14;;;;;;;4.50;3.15;;;;;;;21.49;57.05;99586.53;4406538;32;34743;-75
2022/07/27 03:59:42;;;;;;;5.47;3.08;;;;;;;21.83;55.85;99589.56;4406663;32;34869;-73
2022/07/27 04:02:09;;;;;;;3.55;2.80;;;;;;;22.05;55.01;99578.28;4406755;32;34730;-92
2022/07/27 04:04:37;;;;;;;6.45;3.08;;;;;;;22.21;55.15;99578.56;4407059;32;34622;-83
2022/07/27 04:07:04;;;;;;;4.37;2.90;;;;;;;22.55;53.40;99584.28;4406083;32;34567;-77
2022/07/27 04:09:33;;;;;;;3.65;2.70;;;;;;;22.72;52.57;99584.19;4406458;32;33693;-88
2022/07/27 04:12:01;;;;;;;3.90;2.78;;;;;;;22.88;51.94;99585.25;4406000;32;34980;-76
2022/07/27 04:14:29;;;;;;;3.72;2.58;;;;;;;22.97;51.86;99592.69;4406652;32;33454;-86
2022/07/27 04:16:56;;;;;;;4.87;2.92;;;;;;;23.03;53.00;99592.19;4406371;32;34801;-88
2022/07/27 04:19:24;;;;;;;3.78;2.80;;;;;;;23.10;51.91;99592.44;4401390;32;33858;-78
2022/07/27 04:21:51;;;;;;;2.92;2.50;;;;;;;23.44;51.24;99603.59;4390563;32;34184;-80
2022/07/27 04:24:19;;;;;;;3.42;2.50;;;;;;;23.65;50.44;99595.25;4391248;32;33444;-89
2022/07/27 04:26:47;;;;;;;2.90;2.47;;;;;;;23.78;49.80;99601.66;4392230;32;34678;-72
2022/07/27 04:29:14;;;;;;;5.85;4.80;;;;;;;23.89;50.00;99600.13;4393151;32;34194;-71
2022/07/27 04:31:47;;;;;;;5.00;3.00;;;;;;;23.90;49.76;99599.75;4392945;32;34202;-72
2022/07/27 04:34:15;;;;;;;4.32;2.90;;;;;;;24.01;48.22;99604.87;4390788;32;78875;-74
2022/07/27 04:36:43;;;;;;;3.78;3.10;;;;;;;23.94;49.26;99599.88;4401369;32;33686;-83
2022/07/27 04:39:11;;;;;;;3.62;2.72;;;;;;;23.98;49.80;99600.81;4407383;32;34271;-81
2022/07/27 04:41:39;;;;;;;4.28;3.20;;;;;;;24.43;48.26;99597.22;4390749;32;34254;-84
2022/07/27 04:44:07;;;;;;;4.10;2.83;;;;;;;24.39;48.00;99595.47;4398029;32;33732;-69
2022/07/27 04:46:34;;;;;;;3.72;2.45;;;;;;;24.46;49.66;99595.72;4397764;32;33731;-71
2022/07/27 04:49:02;;;;;;;4.18;2.90;;;;;;;24.14;49.50;99596.22;4377766;32;35093;-69
2022/07/27 04:51:29;;;;;;;4.70;2.83;;;;;;;24.55;48.17;99593.66;4405540;32;34927;-78
2022/07/27 04:54:01;;;;;;;4.80;2.75;;;;;;;24.71;48.38;99599.34;4407874;32;33522;-84
2022/07/27 04:56:29;;;;;;;4.40;2.95;;;;;;;25.22;45.80;99605.28;4396930;32;34941;-69
2022/07/27 04:58:56;;;;;;;3.35;2.70;;;;;;;25.47;44.55;99608.00;4391963;32;34105;-70
2022/07/27 05:01:24;;;;;;;3.42;2.30;;;;;;;25.72;43.60;99612.31;4391696;32;34962;-76
2022/07/27 05:03:55;;;;;;;4.65;3.30;;;;;;;25.54;44.88;99606.22;4391900;32;34598;-69
2022/07/27 05:06:22;;;;;;;3.85;2.55;;;;;;;25.52;46.10;99616.09;4391084;32;33925;-69
2022/07/27 05:08:50;;;;;;;4.78;2.60;;;;;;;25.73;45.17;99613.09;4392297;32;34156;-73
2022/07/27 05:11:18;;;;;;;3.67;2.53;;;;;;;26.05;44.90;99615.97;4389238;32;35055;-71
2022/07/27 05:13:45;;;;;;;3.40;2.45;;;;;;;25.75;46.18;99617.16;4406580;32;34427;-72
2022/07/27 05:16:13;;;;;;;4.35;3.08;;;;;;;26.39;43.93;99617.25;4386580;32;34819;-73
2022/07/27 05:18:40;;;;;;;4.62;2.67;;;;;;;26.34;44.13;99623.91;4376665;32;33712;-76
2022/07/27 05:21:08;;;;;;;3.75;2.72;;;;;;;25.91;45.13;99620.00;4386589;32;34056;-76
2022/07/27 05:23:38;;;;;;;4.53;2.60;;;;;;;26.16;45.02;99626.22;4377413;32;33165;-69
2022/07/27 05:26:06;;;;;;;4.57;3.00;;;;;;;26.52;44.23;99631.91;4381812;32;35104;-69
2022/07/27 05:28:33;;;;;;;3.28;2.47;;;;;;;26.53;43.38;99625.19;4391772;32;34760;-76
2022/07/27 05:31:01;;;;;;;3.83;2.78;;;;;;;26.87;42.43;99615.31;4402567;32;33877;-75
2022/07/27 05:33:28;;;;;;;3.03;2.50;;;;;;;27.07;41.22;99618.13;4406907;32;33909;-70
2022/07/27 05:35:56;;;;;;;4.30;2.83;;;;;;;27.21;41.26;99626.78;4407640;32;33966;-76
2022/07/27 05:38:24;;;;;;;5.37;2.70;;;;;;;27.20;41.04;99631.56;4393804;32;34057;-78
2022/07/27 05:40:52;;;;;;;3.37;2.50;;;;;;;26.91;43.13;99634.84;4395443;32;35033;-87
2022/07/27 05:43:19;;;;;;;4.53;2.45;;;;;;;27.34;41.71;99627.50;4379666;32;33280;-86
2022/07/27 05:45:47;;;;;;;3.80;2.83;;;;;;;27.69;39.96;99623.84;4376967;32;34007;-69
2022/07/27 05:48:14;;;;;;;3.30;2.53;;;;;;;27.57;40.86;99630.38;4379846;32;35107;-66
2022/07/27 05:50:42;;;;;;;3.60;2.72;;;;;;;26.99;40.87;99633.88;4385508;32;34381;-72
2022/07/27 05:53:10;;;;;;;3.75;2.70;;;;;;;27.33;41.67;99637.03;4391610;32;33601;-71
2022/07/27 05:55:37;;;;;;;3.15;2.50;;;;;;;27.80;39.73;99641.63;4391916;32;34152;-71
2022/07/27 05:58:26;;;;;;;4.03;2.78;;;;;;;28.01;39.39;99639.28;4376703;32;35038;-68
2022/07/27 06:00:53;;;;;;;4.05;2.60;;;;;;;28.34;38.65;99643.47;4376864;32;34198;-69
2022/07/27 06:03:22;;;;;;;4.95;2.60;;;;;;;28.63;38.26;99647.56;4376021;32;33717;-73
2022/07/27 06:05:49;;;;;;;5.35;2.87;;;;;;;28.68;36.49;99645.63;4388517;32;33939;-69
2022/07/27 06:08:17;;;;;;;4.03;2.60;;;;;;;29.08;36.33;99650.66;4391729;32;34276;-72
2022/07/27 06:10:44;;;;;;;4.43;3.00;;;;;;;29.06;36.29;99650.22;4390446;32;33857;-75
2022/07/27 06:13:12;;;;;;;4.12;2.60;;;;;;;29.52;34.27;99654.88;4391628;32;33973;-72
2022/07/27 06:15:40;;;;;;;4.12;2.37;;;;;;;30.00;33.29;99657.87;4391810;32;33863;-71
2022/07/27 06:18:13;;;;;;;2.92;2.42;;;;;;;30.32;32.98;99658.25;4392154;32;34218;-71
2022/07/27 06:20:42;;;;;;;2.90;2.37;;;;;;;30.10;32.44;99662.00;4390822;32;35094;-70
2022/07/27 06:23:09;;;;;;;3.12;2.42;;;;;;;29.95;33.33;99658.25;4391784;32;33612;-69
2022/07/27 06:25:37;;;;;;;3.20;2.22;;;;;;;29.53;36.17;99667.69;4391516;32;33766;-70
2022/07/27 06:28:05;;;;;;;2.72;2.08;;;;;;;29.41;33.93;99654.75;4391890;32;35572;-66
2022/07/27 06:30:33;;;;;;;4.47;2.85;;;;;;;29.22;34.65;99653.72;4391908;32;34111;-83
2022/07/27 06:33:04;;;;;;;3.50;2.00;;;;;;;29.19;35.75;99648.06;4391990;32;34546;-85
2022/07/27 06:35:33;;;;;;;3.42;2.20;;;;;;;29.08;34.22;99650.66;4391094;32;34811;-81
2022/07/27 06:38:04;;;;;;;3.03;2.10;;;;;;;29.17;32.84;99651.22;4391914;32;34143;-80
2022/07/27 06:40:31;;;;;;;2.58;2.05;;;;;;;29.27;34.60;99657.37;4387205;32;34206;-77
2022/07/27 06:42:59;;;;;;;5.10;2.30;;;;;;;29.35;33.35;99659.03;4377058;32;33888;-80
2022/07/27 06:45:26;;;;;;;3.05;2.05;;;;;;;30.04;33.25;99655.94;4380422;32;33760;-78
2022/07/27 06:47:54;;;;;;;2.35;1.95;;;;;;;29.23;33.22;99649.72;4391728;32;35167;-81
2022/07/27 06:50:22;;;;;;;2.65;1.70;;;;;;;30.02;31.63;99649.91;4390304;32;34260;-76
2022/07/27 06:52:49;;;;;;;2.60;1.90;;;;;;;30.90;30.45;99651.19;4391933;32;33530;-80
2022/07/27 06:55:17;;;;;;;2.33;1.75;;;;;;;30.19;31.43;99649.28;4391338;32;34509;-80
2022/07/27 06:57:45;;;;;;;2.72;2.08;;;;;;;31.07;30.32;99646.91;4391827;32;35199;-80
2022/07/27 07:00:13;;;;;;;2.37;1.60;;;;;;;30.71;29.02;99635.41;4391895;32;34326;-86
2022/07/27 07:02:57;;;;;;;1.98;1.77;;;;;;;30.75;29.23;99646.62;4378046;32;34269;-86
2022/07/27 07:05:25;;;;;;;2.62;1.70;;;;;;;30.23;29.75;99638.94;4392214;32;34708;-86
2022/07/27 07:07:52;;;;;;;1.42;1.20;;;;;;;29.71;29.37;99648.38;4388463;32;35088;-81
2022/07/27 07:10:21;;;;;;;1.58;1.27;;;;;;;31.03;26.75;99646.06;4397756;32;33902;-83
2022/07/27 07:12:56;;;;;;;7.20;1.40;;;;;;;29.94;28.33;99648.25;4405210;32;33950;-87
2022/07/27 07:15:25;;;;;;;2.10;1.70;;;;;;;29.98;29.50;99641.50;4384697;32;34392;-81
2022/07/27 07:17:53;;;;;;;3.35;1.40;;;;;;;30.59;27.13;99638.53;4390649;32;34135;-87
2022/07/27 07:20:21;;;;;;;1.37;1.27;;;;;;;30.46;27.80;99635.22;4391047;32;33845;-85
2022/07/27 07:22:49;;;;;;;1.83;1.40;;;;;;;30.54;26.58;99636.06;4390660;32;33650;-64
2022/07/27 07:25:16;;;;;;;1.70;1.25;;;;;;;29.68;27.67;99633.13;4391138;32;33835;-67
2022/07/27 07:27:44;;;;;;;2.37;1.77;;;;;;;29.12;28.67;99623.62;4391239;32;34425;-63
2022/07/27 07:30:12;;;;;;;3.22;1.90;;;;;;;28.84;29.24;99621.97;4391112;32;35244;-70
2022/07/27 07:32:39;;;;;;;1.95;1.60;;;;;;;28.55;29.58;99620.72;4391136;32;34334;-69
2022/07/27 07:35:08;;;;;;;2.00;1.70;;;;;;;28.80;29.59;99625.91;4391192;32;34970;-71
2022/07/27 07:37:35;;;;;;;2.42;1.67;;;;;;;28.35;31.34;99624.72;4390541;32;34731;-72
2022/07/27 07:40:04;;;;;;;1.55;1.40;;;;;;;27.87;31.79;99621.47;4402099;32;34333;-67
2022/07/27 07:42:55;;;;;;;1.70;1.42;;;;;;;28.26;30.81;99616.59;4406186;32;34952;-70
2022/07/27 07:45:23;;;;;;;1.52;1.40;;;;;;;28.18;31.98;99614.84;4406152;32;34090;-70
2022/07/27 07:47:51;;;;;;;1.87;1.60;;;;;;;28.29;30.48;99623.41;4406110;32;35002;-70
2022/07/27 07:50:19;;;;;;;1.60;1.40;;;;;;;27.77;31.14;99612.47;4406089;32;33921;-69
2022/07/27 07:52:48;;;;;;;2.17;1.70;;;;;;;27.48;31.44;99619.47;4380626;32;34545;-67
2022/07/27 07:55:19;;;;;;;2.78;1.70;;;;;;;27.67;31.81;99615.03;4403197;32;33955;-72
2022/07/27 07:57:48;;;;;;;2.00;1.48;;;;;;;27.10;33.25;99612.63;4398205;32;34426;-65
2022/07/27 08:00:19;;;;;;;1.67;1.40;;;;;;;27.48;32.49;99622.25;4405826;32;34391;-72
2022/07/27 08:02:48;;;;;;;1.80;1.30;;;;;;;27.43;30.73;99611.41;4395464;32;34574;-63
2022/07/27 08:05:16;;;;;;;2.72;1.62;;;;;;;27.39;34.53;99613.31;4397158;32;34475;-72
2022/07/27 08:07:44;;;;;;;2.37;1.58;;;;;;;27.23;32.23;99604.19;4390911;32;35031;-69
2022/07/27 08:10:13;;;;;;;2.15;1.70;;;;;;;28.02;31.23;99609.41;4390977;32;34327;-64
2022/07/27 08:12:43;;;;;;;1.70;1.60;;;;;;;27.84;31.78;99606.25;4391106;32;35014;-71
2022/07/27 08:15:12;;;;;;;1.65;1.55;;;;;;;27.64;32.51;99604.63;4390925;32;34636;-69
2022/07/27 08:17:41;;;;;;;2.58;1.92;;;;;;;28.11;32.67;99606.38;4393391;32;34468;-72
2022/07/27 08:20:09;;;;;;;3.35;1.95;;;;;;;28.46;30.72;99588.63;4406084;32;34980;-67
2022/07/27 08:22:38;;;;;;;2.87;1.80;;;;;;;27.71;31.04;99597.25;4404187;32;34365;-64
2022/07/27 08:25:06;;;;;;;1.98;1.65;;;;;;;28.16;31.18;99600.47;4390899;32;33765;-73
2022/07/27 08:27:33;;;;;;;2.75;1.70;;;;;;;28.50;30.94;99606.28;4390908;32;33997;-72
2022/07/27 08:30:09;;;;;;;3.75;2.65;;;;;;;28.62;30.77;99597.72;4390495;32;34430;-71
2022/07/27 08:32:57;;;;;;;3.50;2.55;;;;;;;28.47;30.10;99591.06;4390571;32;34478;-69
2022/07/27 08:35:24;;;;;;;3.95;2.62;;;;;;;28.51;28.42;99591.97;4388919;32;34724;-63
2022/07/27 08:37:53;;;;;;;5.28;3.60;;;;;;;28.34;29.03;99582.06;4394654;32;33925;-63
2022/07/27 08:40:20;;;;;;;8.25;7.00;;;;;;;28.04;30.13;99589.53;4405981;32;34233;-64
2022/07/27 08:43:09;;;;;;;7.68;5.87;;;;;;;28.46;29.35;99594.22;4375709;32;33679;-63
2022/07/27 08:45:37;;;;;;;4.95;3.60;;;;;;;28.41;28.03;99596.13;4375920;32;35033;-64
2022/07/27 08:48:05;;;;;;;5.18;3.78;;;;;;;28.12;29.28;99591.22;4375496;32;34766;-64
2022/07/27 08:50:34;;;;;;;3.95;2.62;;;;;;;28.56;30.73;99593.62;4375214;32;34153;-62
2022/07/27 08:53:04;;;;;;;4.10;3.17;;;;;;;28.59;28.68;99588.06;4386942;32;34180;-64
2022/07/27 08:55:40;;;;;;;4.43;3.28;;;;;;;28.68;28.82;99589.81;4392934;32;34006;-63
2022/07/27 08:58:10;;;;;;;4.78;3.50;;;;;;;28.68;28.76;99590.59;4390604;32;32851;-70
2022/07/27 09:00:41;;;;;;;5.85;4.32;;;;;;;29.04;29.57;99585.56;4389763;32;34734;-66
2022/07/27 09:03:13;;;;;;;4.12;3.05;;;;;;;28.79;28.46;99585.19;4389392;32;33529;-64
2022/07/27 09:05:54;;;;;;;4.10;3.10;;;;;;;28.71;29.07;99587.06;4390392;32;34745;-70
2022/07/27 09:08:25;;;;;;;4.93;2.60;;;;;;;28.46;28.36;99583.84;4390135;32;35110;-71
2022/07/27 09:10:54;;;;;;;4.87;3.10;;;;;;;28.53;28.65;99584.00;4389808;32;34228;-71
2022/07/27 09:13:26;;;;;;;4.72;3.12;;;;;;;28.53;28.86;99584.00;4388955;32;34768;-65
2022/07/27 09:15:54;;;;;;;4.43;2.45;;;;;;;28.62;28.08;99587.34;4392782;32;34012;-65
2022/07/27 09:18:42;;;;;;;5.07;3.67;;;;;;;28.69;27.39;99585.84;4392524;32;35205;-72
2022/07/27 09:21:15;;;;;;;6.32;3.55;;;;;;;28.53;27.39;99592.38;4392378;32;34014;-64
2022/07/27 09:23:49;;;;;;;6.45;4.30;;;;;;;28.88;27.73;99593.28;4391953;32;34608;-67
2022/07/27 09:26:19;;;;;;;5.57;3.80;;;;;;;28.90;25.91;99588.13;4397306;32;34012;-70
2022/07/27 09:29:06;;;;;;;6.12;4.07;;;;;;;28.67;28.07;99579.84;4381069;32;34479;-70
2022/07/27 09:31:40;;;;;;;5.85;3.62;;;;;;;28.82;27.32;99585.25;4391801;32;34079;-71
2022/07/27 09:34:08;;;;;;;5.25;3.87;;;;;;;28.75;27.64;99585.16;4392178;32;34537;-72
2022/07/27 09:36:50;;;;;;;5.30;4.10;;;;;;;28.66;26.81;99586.59;4392509;32;34073;-70
2022/07/27 09:39:20;;;;;;;4.15;3.03;;;;;;;29.03;25.58;99578.38;4385483;32;34286;-64
2022/07/27 09:41:53;;;;;;;4.20;3.28;;;;;;;28.84;26.15;99588.47;4395144;32;34193;-62
2022/07/27 09:44:34;;;;;;;4.95;3.55;;;;;;;28.13;26.32;99578.91;4402924;32;34502;-74
2022/07/27 09:47:27;;;;;;;4.80;3.25;;;;;;;28.80;26.11;99579.22;4392430;32;34072;-69
2022/07/27 09:49:57;;;;;;;5.12;3.20;;;;;;;29.35;25.99;99569.63;4391813;32;34277;-71
2022/07/27 09:52:28;;;;;;;3.92;3.00;;;;;;;28.95;25.54;99577.47;4378868;32;34045;-68
2022/07/27 09:55:04;;;;;;;5.00;3.45;;;;;;;28.24;27.43;99577.09;4392131;32;33715;-72
2022/07/27 09:57:56;;;;;;;4.80;3.37;;;;;;;29.28;25.59;99589.09;4392024;32;34528;-68
2022/07/27 10:00:24;;;;;;;5.57;3.72;;;;;;;29.31;24.47;99577.16;4392129;32;34956;-63
2022/07/27 10:02:53;;;;;;;5.45;3.55;;;;;;;29.44;24.99;99581.34;4392432;32;34104;-69
2022/07/27 10:05:21;;;;;;;6.20;3.80;;;;;;;29.67;25.95;99581.19;4392037;32;33548;-64
2022/07/27 10:07:51;;;;;;;4.40;3.03;;;;;;;30.26;24.30;99578.62;4391761;32;33985;-68
2022/07/27 10:10:20;;;;;;;3.60;3.05;;;;;;;29.76;24.48;99587.34;4392244;32;34753;-63
2022/07/27 10:12:47;;;;;;;3.53;2.55;;;;;;;29.63;25.55;99575.56;4382077;32;35084;-63
2022/07/27 10:15:24;;;;;;;3.95;2.83;;;;;;;29.48;25.51;99584.16;4377146;32;34712;-65
2022/07/27 10:18:05;;;;;;;5.07;3.78;;;;;;;29.60;24.68;99584.69;4377346;32;33911;-63
2022/07/27 10:20:37;;;;;;;5.68;4.37;;;;;;;29.60;24.73;99567.94;4375558;32;34083;-75
2022/07/27 10:23:04;;;;;;;6.90;4.37;;;;;;;29.79;24.69;99580.16;4382042;32;34890;-65
2022/07/27 10:25:34;;;;;;;5.50;4.07;;;;;;;29.64;24.08;99576.38;4391900;32;33480;-66
2022/07/27 10:28:10;;;;;;;7.03;4.55;;;;;;;29.18;24.57;99574.63;4392061;32;34370;-63
2022/07/27 10:30:38;;;;;;;5.12;3.67;;;;;;;29.34;25.05;99562.44;4391665;32;34275;-67
2022/07/27 10:33:36;;;;;;;4.60;3.83;;;;;;;29.85;23.78;99568.25;4391836;32;33985;-64
2022/07/27 10:36:13;;;;;;;4.93;3.72;;;;;;;29.80;24.70;99571.38;4391832;32;33710;-63
2022/07/27 10:38:45;;;;;;;5.55;3.53;;;;;;;30.09;23.76;99559.66;4391672;32;33838;-64
2022/07/27 10:41:21;;;;;;;5.10;3.75;;;;;;;30.76;22.94;99558.63;4391214;32;35020;-68
2022/07/27 10:43:50;;;;;;;5.95;3.45;;;;;;;30.43;23.24;99561.22;4385857;32;34225;-64
2022/07/27 10:46:19;;;;;;;5.22;3.20;;;;;;;30.34;22.73;99552.31;4392210;32;33513;-65
2022/07/27 10:48:47;;;;;;;4.32;3.28;;;;;;;30.50;22.88;99548.44;4391506;32;33972;-65
2022/07/27 10:51:16;;;;;;;4.43;3.30;;;;;;;30.37;22.59;99543.16;4391508;32;35188;-70
2022/07/27 10:53:44;;;;;;;3.95;2.80;;;;;;;30.12;24.10;99542.91;4377487;32;34388;-67
2022/07/27 10:56:45;;;;;;;4.25;3.08;;;;;;;29.50;23.59;99546.25;4390169;32;33429;-70
2022/07/27 10:59:14;;;;;;;4.78;3.03;;;;;;;30.43;22.57;99546.38;4391778;32;34685;-72
2022/07/27 11:01:56;;;;;;;4.68;3.10;;;;;;;30.78;22.37;99543.03;4390902;32;33912;-71
2022/07/27 11:04:24;;;;;;;4.35;3.25;;;;;;;30.52;22.57;99543.25;4389031;32;33978;-71
2022/07/27 11:06:59;;;;;;;4.30;2.85;;;;;;;30.29;22.66;99543.50;4405967;32;34444;-69
2022/07/27 11:09:49;;;;;;;4.20;3.03;;;;;;;30.69;23.40;99542.56;4378791;32;34068;-64
2022/07/27 11:12:32;;;;;;;3.62;2.97;;;;;;;31.21;22.57;99537.69;4391310;32;35071;-70
2022/07/27 11:15:00;;;;;;;4.57;3.10;;;;;;;31.64;22.59;99535.06;4390173;32;34099;-67
2022/07/27 11:17:29;;;;;;;4.10;3.00;;;;;;;31.99;22.56;99533.53;4391211;32;33699;-72
2022/07/27 11:20:22;;;;;;;3.85;2.87;;;;;;;32.13;22.12;99535.53;4403545;32;34550;-69
2022/07/27 11:22:49;;;;;;;4.43;2.87;;;;;;;32.04;21.85;99543.56;4386626;32;34856;-68
2022/07/27 11:25:37;;;;;;;3.92;3.03;;;;;;;31.91;22.59;99525.50;4376231;32;34454;-72
2022/07/27 11:28:06;;;;;;;4.32;2.75;;;;;;;32.04;20.84;99533.12;4377040;32;33224;-68
2022/07/27 11:30:33;;;;;;;3.60;2.85;;;;;;;31.84;20.71;99523.47;4389372;32;34850;-71
2022/07/27 11:33:03;;;;;;;4.28;2.60;;;;;;;31.34;21.59;99526.94;4390571;32;34529;-64
2022/07/27 11:35:30;;;;;;;5.45;3.00;;;;;;;30.30;22.04;99523.50;4389971;32;34485;-71
2022/07/27 11:38:01;;;;;;;4.60;2.97;;;;;;;31.26;21.94;99514.88;4391105;32;34676;-72
2022/07/27 11:40:41;;;;;;;3.80;2.92;;;;;;;31.89;20.82;99511.84;4390695;32;33964;-71
2022/07/27 11:43:35;;;;;;;3.53;2.80;;;;;;;31.61;20.62;99518.22;4391193;32;35077;-66
2022/07/27 11:46:14;;;;;;;3.45;2.50;;;;;;;30.97;22.41;99515.94;4391148;32;34350;-65
2022/07/27 11:48:55;;;;;;;4.35;3.00;;;;;;;30.25;23.76;99519.03;4390249;32;34506;-66
2022/07/27 11:51:40;;;;;;;3.22;2.60;;;;;;;30.00;22.84;99518.00;4390833;32;34803;-70